首页
METAR-TAF:

METAR-TAF

机场 :

鳥取機場

鳥取, 日本

纬度: 35-32N, 经度: 134-10E, 海拔: 15米

当前天气观测

该预报发布于2小时和15分钟前的12:00 UTC
风速6节,风向南转南东
温度 26°C
湿度 70%
气压 1007 hPa
能见度10公里或以上
少量云层高于3500英尺

METAR: RJOR 201200Z 16006KT 9999 FEW035 26/20 Q1007

时间: 23:15 (14:15 UTC)


TAF: 丢失

超过4000个机场的气象观测和天气预报(METAR&TAF报告)。

可查询的气象台以黄色和红色小点在地图上表示。

将鼠标移到小点上方,可查看气象台名称。

然后点击查看天气观测和预报。

如需切换地图:点击带黑十字的绿色按钮放大地图;点击带横线的绿色按钮缩小地图;或者点击绿色箭头查看邻近地区的地图。


METAR-TAF: